Time;durP1;ratioP1;P1;durP2;ratioP2;P2;SDS_P1;SDS_P2;PMS_P1;PMS_P2;Temp;Humidity;BMP_temperature;BMP_pressure;BME280_temperature;BME280_humidity;BME280_pressure;Samples;Min_cycle;Max_cycle;Signal;HPM_P1;HPM_P2
2024/02/04 00:00:15;;;;;;;5.75;2.13;;;9.70;99.90;;;;;;5064792;28;20048;-51
2024/02/04 00:02:40;;;;;;;5.75;2.45;;;9.60;99.90;;;;;;5065410;28;20052;-47
2024/02/04 00:05:06;;;;;;;11.43;3.28;;;9.60;99.90;;;;;;5065368;28;20279;-51
2024/02/04 00:07:32;;;;;;;9.18;2.70;;;9.60;99.90;;;;;;5064915;28;20043;-50
2024/02/04 00:09:57;;;;;;;7.40;2.30;;;9.60;99.90;;;;;;5065185;28;20031;-51
2024/02/04 00:12:23;;;;;;;9.07;1.70;;;9.60;99.90;;;;;;5065109;28;20036;-50
2024/02/04 00:14:49;;;;;;;4.57;1.27;;;9.60;99.90;;;;;;5065274;28;20036;-50
2024/02/04 00:17:16;;;;;;;9.32;2.35;;;9.60;99.90;;;;;;5068733;28;20048;-50
2024/02/04 00:19:41;;;;;;;7.10;1.60;;;9.60;99.90;;;;;;5068876;28;20024;-51
2024/02/04 00:22:07;;;;;;;4.07;1.65;;;9.50;99.90;;;;;;5067776;28;20043;-49
2024/02/04 00:24:33;;;;;;;7.35;2.25;;;9.60;99.90;;;;;;5068909;28;20048;-50
2024/02/04 00:26:58;;;;;;;6.65;2.10;;;9.60;99.90;;;;;;5067900;28;20036;-49
2024/02/04 00:29:24;;;;;;;8.20;2.33;;;9.60;99.90;;;;;;5068728;28;20047;-50
2024/02/04 00:31:50;;;;;;;7.68;2.42;;;9.70;99.90;;;;;;5068437;28;20094;-50
2024/02/04 00:34:16;;;;;;;7.50;2.35;;;9.70;99.90;;;;;;5068522;28;20074;-49
2024/02/04 00:36:41;;;;;;;6.60;2.80;;;9.70;99.90;;;;;;5068557;28;20036;-47
2024/02/04 00:39:07;;;;;;;9.52;3.92;;;9.80;99.90;;;;;;5068616;28;20040;-49
2024/02/04 00:41:33;;;;;;;11.48;4.55;;;9.80;99.90;;;;;;5068141;28;20024;-50
2024/02/04 00:43:59;;;;;;;18.13;7.50;;;9.80;99.90;;;;;;5068484;28;20082;-50
2024/02/04 00:46:25;;;;;;;7.25;3.75;;;9.80;99.90;;;;;;5068475;28;20041;-49
2024/02/04 00:48:50;;;;;;;13.95;4.88;;;9.80;99.90;;;;;;5067178;28;20025;-46
2024/02/04 00:51:17;;;;;;;11.07;4.25;;;9.80;99.90;;;;;;5067854;28;20017;-49
2024/02/04 00:53:43;;;;;;;9.48;3.33;;;9.80;99.90;;;;;;5067405;28;20194;-47
2024/02/04 00:56:09;;;;;;;5.82;2.90;;;9.90;99.90;;;;;;5067332;28;20278;-49
2024/02/04 00:58:35;;;;;;;10.43;3.70;;;9.90;99.90;;;;;;5068222;28;20085;-49
2024/02/04 01:01:01;;;;;;;9.38;4.22;;;9.90;99.90;;;;;;5068201;28;20040;-48
2024/02/04 01:03:26;;;;;;;11.07;4.05;;;9.90;99.90;;;;;;5068181;28;20039;-48
2024/02/04 01:05:52;;;;;;;19.25;9.80;;;9.90;99.90;;;;;;5067925;28;20191;-47
2024/02/04 01:08:17;;;;;;;6.00;2.42;;;9.90;99.90;;;;;;5067950;28;20318;-49
2024/02/04 01:10:43;;;;;;;9.20;4.38;;;9.90;99.90;;;;;;5068042;28;20039;-50
2024/02/04 01:13:09;;;;;;;6.15;1.90;;;9.90;99.90;;;;;;5067912;28;20079;-47
2024/02/04 01:15:34;;;;;;;5.47;2.53;;;10.00;99.90;;;;;;5067904;28;20094;-48
2024/02/04 01:18:00;;;;;;;5.65;2.13;;;10.00;99.90;;;;;;5067583;28;20064;-48
2024/02/04 01:20:26;;;;;;;9.93;3.58;;;9.90;99.90;;;;;;5067732;28;20218;-50
2024/02/04 01:22:52;;;;;;;5.47;2.75;;;9.90;99.90;;;;;;5067505;28;20353;-48
2024/02/04 01:25:18;;;;;;;5.20;2.60;;;9.90;99.90;;;;;;5067824;28;20033;-50
2024/02/04 01:27:43;;;;;;;7.82;3.25;;;10.00;99.90;;;;;;5066723;28;20311;-48
2024/02/04 01:30:09;;;;;;;10.80;3.42;;;10.00;99.90;;;;;;5067529;28;20105;-47
2024/02/04 01:32:35;;;;;;;3.22;2.00;;;10.00;99.90;;;;;;5067561;28;20199;-49
2024/02/04 01:35:01;;;;;;;5.38;2.00;;;10.00;99.90;;;;;;5067089;28;20021;-49
2024/02/04 01:37:26;;;;;;;5.82;2.20;;;10.00;99.90;;;;;;5066399;28;20200;-50
2024/02/04 01:39:52;;;;;;;6.13;2.05;;;10.00;99.90;;;;;;5067624;28;20082;-47
2024/02/04 01:42:17;;;;;;;5.18;2.22;;;10.00;99.90;;;;;;5067363;28;20097;-50
2024/02/04 01:44:43;;;;;;;4.00;1.65;;;10.00;99.90;;;;;;5067554;28;20291;-50
2024/02/04 01:47:09;;;;;;;7.15;2.63;;;10.00;99.90;;;;;;5067404;28;20255;-48
2024/02/04 01:49:35;;;;;;;6.65;2.17;;;10.00;99.90;;;;;;5066421;28;20190;-48
2024/02/04 01:52:01;;;;;;;6.05;2.00;;;10.00;99.90;;;;;;5066766;28;20036;-47
2024/02/04 01:54:27;;;;;;;6.53;1.70;;;10.10;99.90;;;;;;5066216;28;20035;-49
2024/02/04 01:56:52;;;;;;;6.57;2.55;;;10.10;99.90;;;;;;5066239;28;20044;-48
2024/02/04 01:59:19;;;;;;;9.07;2.67;;;10.10;99.90;;;;;;5067202;28;20036;-48
2024/02/04 02:01:45;;;;;;;8.02;2.42;;;10.10;99.90;;;;;;5067041;28;20048;-46
2024/02/04 02:04:11;;;;;;;8.25;2.75;;;10.10;99.90;;;;;;5066913;28;20024;-47
2024/02/04 02:06:41;;;;;;;5.57;2.53;;;10.10;99.90;;;;;;5066958;28;20178;-48
2024/02/04 02:09:08;;;;;;;5.72;3.10;;;10.10;99.90;;;;;;5065802;28;20032;-47
2024/02/04 02:11:40;;;;;;;7.38;2.90;;;10.10;99.90;;;;;;5066101;28;20028;-47
2024/02/04 02:14:07;;;;;;;12.35;4.00;;;10.20;99.90;;;;;;5066746;28;20204;-47
2024/02/04 02:16:33;;;;;;;10.43;3.03;;;10.20;99.90;;;;;;5065585;28;20116;-48
2024/02/04 02:19:12;;;;;;;15.63;5.10;;;10.20;99.90;;;;;;5066922;28;20020;-48
2024/02/04 02:21:56;;;;;;;9.95;4.43;;;10.20;99.90;;;;;;5065817;28;20100;-49
2024/02/04 02:24:22;;;;;;;12.75;4.93;;;10.20;99.90;;;;;;5065778;28;20088;-50
2024/02/04 02:26:49;;;;;;;15.93;5.47;;;10.20;99.90;;;;;;5066644;28;20025;-50
2024/02/04 02:29:14;;;;;;;16.92;5.32;;;10.10;99.90;;;;;;5066622;28;20195;-48
2024/02/04 02:31:40;;;;;;;18.75;5.60;;;10.20;99.90;;;;;;5066607;28;20088;-50
2024/02/04 02:34:06;;;;;;;22.00;6.30;;;10.10;99.90;;;;;;5065441;28;20040;-49
2024/02/04 02:36:36;;;;;;;14.02;6.45;;;10.10;99.90;;;;;;5066408;28;20021;-50
2024/02/04 02:39:18;;;;;;;13.95;5.78;;;10.20;99.90;;;;;;5065386;28;20024;-50
2024/02/04 02:41:45;;;;;;;13.00;5.43;;;10.10;99.90;;;;;;5066103;28;20029;-50
2024/02/04 02:44:11;;;;;;;15.35;5.60;;;10.10;99.90;;;;;;5065241;28;20029;-49
2024/02/04 02:46:36;;;;;;;19.20;5.78;;;10.10;99.90;;;;;;5066225;28;20115;-49
2024/02/04 02:49:02;;;;;;;17.58;5.53;;;10.10;99.90;;;;;;5065212;28;20037;-50
2024/02/04 02:51:28;;;;;;;9.48;4.45;;;10.10;99.90;;;;;;5048390;28;20048;-50
2024/02/04 02:53:53;;;;;;;14.27;5.25;;;10.10;99.90;;;;;;5066085;28;20055;-47
2024/02/04 02:56:19;;;;;;;18.77;6.32;;;10.10;99.90;;;;;;5065640;28;20164;-47
2024/02/04 02:58:45;;;;;;;16.17;6.18;;;10.10;99.90;;;;;;5066058;28;20047;-48
2024/02/04 03:01:10;;;;;;;13.73;5.75;;;10.10;99.90;;;;;;5064934;28;20100;-47
2024/02/04 03:03:36;;;;;;;12.38;4.78;;;10.10;99.90;;;;;;5066101;28;20033;-47
2024/02/04 03:06:01;;;;;;;13.60;5.10;;;10.10;99.90;;;;;;5065730;28;20025;-48
2024/02/04 03:08:27;;;;;;;13.05;5.68;;;10.10;99.90;;;;;;5065753;28;20029;-49
2024/02/04 03:10:53;;;;;;;14.70;5.50;;;10.10;99.90;;;;;;5065419;28;20255;-47
2024/02/04 03:13:18;;;;;;;10.63;4.95;;;10.10;99.90;;;;;;5065786;28;20036;-48
2024/02/04 03:15:44;;;;;;;9.82;4.30;;;10.10;99.90;;;;;;5065703;28;20071;-50
2024/02/04 03:18:10;;;;;;;12.48;4.60;;;10.10;99.90;;;;;;5065435;28;20052;-50
2024/02/04 03:20:37;;;;;;;9.63;3.83;;;10.10;99.90;;;;;;5065710;28;20045;-49
2024/02/04 03:23:03;;;;;;;11.52;3.78;;;10.10;99.90;;;;;;5065653;28;20025;-49
2024/02/04 03:25:29;;;;;;;9.77;3.70;;;10.10;99.90;;;;;;5065578;28;20033;-49
2024/02/04 03:27:55;;;;;;;9.40;3.60;;;10.10;99.90;;;;;;5065749;28;20028;-49
2024/02/04 03:30:20;;;;;;;8.55;3.97;;;10.10;99.90;;;;;;5065486;28;20053;-50
2024/02/04 03:32:46;;;;;;;9.07;3.88;;;10.10;99.90;;;;;;5064506;28;20224;-50
2024/02/04 03:35:12;;;;;;;8.85;4.38;;;10.10;99.90;;;;;;5065543;28;20049;-50
2024/02/04 03:37:37;;;;;;;10.07;3.72;;;10.10;99.90;;;;;;5064755;28;20016;-50
2024/02/04 03:40:03;;;;;;;8.15;3.70;;;10.10;99.90;;;;;;5065299;28;20025;-50
2024/02/04 03:42:29;;;;;;;8.43;3.50;;;10.10;99.90;;;;;;5065379;28;20025;-49
2024/02/04 03:44:55;;;;;;;8.57;2.85;;;10.10;99.90;;;;;;5064447;28;20219;-50
2024/02/04 03:47:21;;;;;;;9.90;3.08;;;10.10;99.90;;;;;;5065305;28;20168;-50
2024/02/04 03:49:46;;;;;;;9.50;3.53;;;10.10;99.90;;;;;;5065412;28;20029;-50
2024/02/04 03:52:12;;;;;;;10.85;2.90;;;10.10;99.90;;;;;;5069083;28;20171;-49
2024/02/04 03:54:38;;;;;;;7.03;3.58;;;10.10;99.90;;;;;;5068614;28;20243;-47
2024/02/04 03:57:04;;;;;;;15.10;4.20;;;10.10;99.90;;;;;;5069486;28;20119;-50
2024/02/04 03:59:29;;;;;;;10.98;4.03;;;10.10;99.90;;;;;;5068987;28;20092;-49
2024/02/04 04:01:56;;;;;;;10.48;4.68;;;10.10;99.90;;;;;;5068437;28;20049;-49
2024/02/04 04:04:21;;;;;;;9.52;4.30;;;10.20;99.90;;;;;;5068317;28;20086;-49
2024/02/04 04:06:48;;;;;;;11.48;4.85;;;10.10;99.90;;;;;;5069357;28;20032;-50
2024/02/04 04:09:14;;;;;;;12.98;5.35;;;10.10;99.90;;;;;;5069291;28;20759;-50
2024/02/04 04:11:39;;;;;;;14.07;6.00;;;10.10;99.90;;;;;;5068206;28;20296;-50
2024/02/04 04:14:05;;;;;;;11.48;5.85;;;10.10;99.90;;;;;;5068862;28;20032;-50
2024/02/04 04:16:31;;;;;;;11.10;5.38;;;10.10;99.90;;;;;;5068805;28;20045;-50
2024/02/04 04:18:58;;;;;;;14.77;6.10;;;10.10;99.90;;;;;;5069041;28;20148;-50
2024/02/04 04:21:24;;;;;;;14.48;6.82;;;10.10;99.90;;;;;;5068656;28;20021;-50
2024/02/04 04:23:49;;;;;;;12.90;5.63;;;10.20;99.90;;;;;;5068884;28;20337;-50
2024/02/04 04:26:15;;;;;;;15.90;6.78;;;10.20;99.90;;;;;;5068950;28;20036;-50
2024/02/04 04:28:41;;;;;;;13.23;6.70;;;10.10;99.90;;;;;;5068814;28;20031;-50
2024/02/04 04:31:06;;;;;;;14.82;7.63;;;10.10;99.90;;;;;;5068852;28;20052;-50
2024/02/04 04:33:32;;;;;;;15.20;5.97;;;10.10;99.90;;;;;;5068818;28;20028;-51
2024/02/04 04:35:58;;;;;;;11.95;5.68;;;10.10;99.90;;;;;;5067771;28;20020;-50
2024/02/04 04:38:23;;;;;;;13.73;6.22;;;10.10;99.90;;;;;;5068635;28;20096;-50
2024/02/04 04:40:49;;;;;;;12.80;5.53;;;10.10;99.90;;;;;;5069141;28;20033;-47
2024/02/04 04:43:14;;;;;;;9.85;5.15;;;10.10;99.90;;;;;;5068653;28;20021;-49
2024/02/04 04:45:40;;;;;;;11.00;4.50;;;10.20;99.90;;;;;;5068294;28;20037;-49
2024/02/04 04:48:09;;;;;;;9.73;4.60;;;10.20;99.90;;;;;;5068337;28;20088;-49
2024/02/04 04:50:35;;;;;;;11.80;5.78;;;10.10;99.90;;;;;;5068424;28;20034;-49
2024/02/04 04:53:01;;;;;;;12.40;5.53;;;10.10;99.90;;;;;;5068325;28;20040;-48
2024/02/04 04:55:26;;;;;;;10.38;5.13;;;10.10;99.90;;;;;;5067158;28;20026;-50
2024/02/04 04:57:52;;;;;;;12.55;5.47;;;10.10;99.90;;;;;;5068269;28;20032;-47
2024/02/04 05:00:18;;;;;;;15.75;5.93;;;10.00;99.90;;;;;;5068300;28;20028;-50
2024/02/04 05:02:44;;;;;;;13.50;5.60;;;10.00;99.90;;;;;;5067081;28;20032;-49
2024/02/04 05:05:13;;;;;;;15.52;6.18;;;10.10;99.90;;;;;;5066969;28;20240;-47
2024/02/04 05:07:39;;;;;;;14.13;5.90;;;10.10;99.90;;;;;;5068069;28;20316;-48
2024/02/04 05:10:05;;;;;;;10.90;5.13;;;10.10;99.90;;;;;;5067913;28;20029;-49
2024/02/04 05:12:32;;;;;;;13.25;5.85;;;10.00;99.90;;;;;;5067903;28;20367;-47
2024/02/04 05:14:58;;;;;;;10.15;5.57;;;10.00;99.90;;;;;;5066942;28;20066;-49
2024/02/04 05:17:23;;;;;;;10.85;5.57;;;10.00;99.90;;;;;;5066675;28;20137;-47
2024/02/04 05:19:49;;;;;;;12.45;5.57;;;10.00;99.90;;;;;;5067869;28;20029;-48
2024/02/04 05:22:15;;;;;;;9.93;4.95;;;10.00;99.90;;;;;;5067767;28;20047;-48
2024/02/04 05:24:41;;;;;;;9.20;4.63;;;10.00;99.90;;;;;;5067800;28;20036;-48
2024/02/04 05:27:06;;;;;;;12.75;5.82;;;10.10;99.90;;;;;;5067778;28;20036;-50
2024/02/04 05:29:32;;;;;;;15.57;7.90;;;10.10;99.90;;;;;;5067610;28;20040;-48
2024/02/04 05:31:58;;;;;;;15.13;7.43;;;10.10;99.90;;;;;;5066708;28;20044;-50
2024/02/04 05:34:23;;;;;;;13.63;6.90;;;10.20;99.90;;;;;;5067571;28;20056;-48
2024/02/04 05:36:49;;;;;;;16.80;7.72;;;10.20;99.90;;;;;;5067149;28;20075;-49
2024/02/04 05:39:15;;;;;;;11.95;6.40;;;10.20;99.90;;;;;;5066493;28;20067;-47
2024/02/04 05:41:41;;;;;;;14.80;6.47;;;10.20;99.90;;;;;;5066573;28;20024;-47
2024/02/04 05:44:08;;;;;;;14.27;7.43;;;10.20;99.90;;;;;;5066345;28;20024;-49
2024/02/04 05:46:35;;;;;;;18.10;7.72;;;10.20;99.90;;;;;;5066532;28;20025;-50
2024/02/04 05:49:00;;;;;;;12.30;5.32;;;10.20;99.90;;;;;;5066168;28;20251;-49
2024/02/04 05:51:27;;;;;;;16.58;6.85;;;10.20;99.90;;;;;;5067160;28;20025;-49
2024/02/04 05:53:52;;;;;;;15.45;6.60;;;10.20;99.90;;;;;;5067275;28;20056;-48
2024/02/04 05:56:18;;;;;;;21.95;6.65;;;10.30;99.90;;;;;;5067154;28;20021;-50
2024/02/04 05:58:44;;;;;;;18.27;6.68;;;10.20;99.90;;;;;;5066246;28;20088;-50
2024/02/04 06:01:09;;;;;;;18.73;6.72;;;10.30;99.90;;;;;;5067204;28;20033;-50
2024/02/04 06:03:35;;;;;;;17.63;6.18;;;10.30;99.90;;;;;;5066843;28;20029;-48
2024/02/04 06:06:00;;;;;;;15.65;6.00;;;10.30;99.90;;;;;;5066899;28;20043;-50
2024/02/04 06:08:26;;;;;;;16.27;5.40;;;10.30;99.90;;;;;;5066882;28;20040;-48
2024/02/04 06:10:52;;;;;;;22.23;5.78;;;10.30;99.90;;;;;;5067026;28;20075;-48
2024/02/04 06:13:17;;;;;;;13.85;4.97;;;10.30;99.90;;;;;;5066615;28;20040;-49
2024/02/04 06:15:43;;;;;;;17.90;5.40;;;10.30;99.90;;;;;;5065889;28;20033;-49
2024/02/04 06:18:09;;;;;;;16.02;5.20;;;10.30;99.90;;;;;;5065603;28;20053;-48
2024/02/04 06:20:34;;;;;;;12.80;3.90;;;10.30;99.90;;;;;;5066348;28;20230;-48
2024/02/04 06:23:00;;;;;;;17.58;5.13;;;10.30;99.90;;;;;;5065597;28;20168;-48
2024/02/04 06:25:26;;;;;;;24.85;5.68;;;10.20;99.90;;;;;;5066527;28;20024;-47
2024/02/04 06:27:52;;;;;;;14.45;4.93;;;10.20;99.90;;;;;;5066404;28;20043;-47
2024/02/04 06:30:17;;;;;;;20.60;5.85;;;10.20;99.90;;;;;;5066377;28;20045;-49
2024/02/04 06:32:43;;;;;;;20.27;5.55;;;10.20;99.90;;;;;;5066452;28;20040;-50
2024/02/04 06:35:09;;;;;;;22.55;6.03;;;10.20;99.90;;;;;;5066022;28;20167;-49
2024/02/04 06:37:34;;;;;;;23.67;7.07;;;10.10;99.90;;;;;;5066329;28;20270;-48
2024/02/04 06:40:00;;;;;;;21.38;7.13;;;10.10;99.90;;;;;;5066175;28;20024;-48
2024/02/04 06:42:26;;;;;;;10.65;5.18;;;10.10;99.90;;;;;;5066316;28;20024;-50
2024/02/04 06:44:51;;;;;;;13.32;4.00;;;10.10;99.90;;;;;;5066387;28;20075;-49
2024/02/04 06:47:17;;;;;;;13.95;4.35;;;10.00;99.90;;;;;;5066227;28;20087;-49
2024/02/04 06:49:46;;;;;;;29.35;9.30;;;10.00;99.90;;;;;;5065079;28;20020;-50
2024/02/04 06:52:11;;;;;;;20.90;4.85;;;10.00;99.90;;;;;;5065095;28;20104;-50
2024/02/04 06:54:37;;;;;;;14.13;4.05;;;10.00;99.90;;;;;;5065743;28;20025;-49
2024/02/04 06:57:03;;;;;;;10.95;3.15;;;10.00;99.90;;;;;;5065059;28;20024;-50
2024/02/04 06:59:28;;;;;;;11.32;3.28;;;10.10;99.90;;;;;;5066158;28;20037;-47
2024/02/04 07:01:54;;;;;;;9.13;2.80;;;10.10;99.90;;;;;;5065739;28;20029;-49
2024/02/04 07:04:21;;;;;;;8.98;2.72;;;10.10;99.90;;;;;;5065911;28;20033;-50
2024/02/04 07:06:47;;;;;;;8.73;2.60;;;10.20;99.90;;;;;;5065497;28;20028;-48
2024/02/04 07:09:13;;;;;;;7.20;2.25;;;10.20;99.90;;;;;;5065920;28;20024;-47
2024/02/04 07:11:39;;;;;;;8.35;2.40;;;10.20;99.90;;;;;;5064879;28;20044;-47
2024/02/04 07:14:06;;;;;;;4.03;2.20;;;10.30;99.90;;;;;;5064565;28;20123;-48
2024/02/04 07:16:31;;;;;;;6.05;2.50;;;10.30;99.90;;;;;;5065623;28;20381;-48
2024/02/04 07:18:57;;;;;;;8.77;2.60;;;10.30;99.90;;;;;;5065883;28;20025;-47
2024/02/04 07:21:23;;;;;;;7.65;2.60;;;10.30;99.90;;;;;;5065564;28;20101;-47
2024/02/04 07:23:48;;;;;;;6.57;2.50;;;10.30;99.90;;;;;;5065217;28;20074;-48
2024/02/04 07:26:14;;;;;;;8.57;2.92;;;10.20;99.90;;;;;;5064867;28;20043;-48
2024/02/04 07:28:40;;;;;;;9.45;3.33;;;10.20;99.90;;;;;;5065610;28;20212;-46
2024/02/04 07:31:05;;;;;;;14.88;3.80;;;10.20;99.90;;;;;;5065548;28;20059;-49
2024/02/04 07:33:31;;;;;;;14.52;4.15;;;10.10;99.90;;;;;;5065284;28;20091;-48
2024/02/04 07:35:56;;;;;;;19.42;5.88;;;10.10;99.90;;;;;;5064634;28;20294;-49
2024/02/04 07:38:22;;;;;;;17.42;4.57;;;10.00;99.90;;;;;;5065052;28;20076;-47
2024/02/04 07:40:48;;;;;;;17.77;4.55;;;10.00;99.90;;;;;;5064509;28;20024;-50
2024/02/04 07:43:13;;;;;;;22.58;4.68;;;10.00;99.90;;;;;;5065501;28;20262;-50
2024/02/04 07:45:39;;;;;;;16.02;4.28;;;10.00;99.90;;;;;;5065356;28;20040;-49
2024/02/04 07:48:05;;;;;;;19.50;4.05;;;10.00;99.90;;;;;;5065389;28;20033;-49
2024/02/04 07:50:31;;;;;;;16.85;4.05;;;10.00;99.90;;;;;;5065441;28;20203;-50
2024/02/04 07:52:56;;;;;;;17.95;4.32;;;9.90;99.90;;;;;;5064242;28;20084;-47
2024/02/04 07:55:22;;;;;;;16.63;4.47;;;9.90;99.90;;;;;;5064927;28;20021;-49
2024/02/04 07:57:47;;;;;;;16.42;3.88;;;9.90;99.90;;;;;;5064169;28;20033;-50
2024/02/04 08:00:13;;;;;;;14.02;3.75;;;9.90;99.90;;;;;;5065108;28;20267;-50
2024/02/04 08:02:39;;;;;;;15.20;3.20;;;9.90;99.90;;;;;;5065416;28;20029;-50
2024/02/04 08:05:05;;;;;;;9.02;2.88;;;10.00;99.90;;;;;;5064155;28;20044;-49
2024/02/04 08:07:31;;;;;;;12.05;3.30;;;10.00;99.90;;;;;;5065198;28;20146;-50
2024/02/04 08:09:57;;;;;;;15.68;3.13;;;10.00;99.90;;;;;;5065229;28;20032;-50
2024/02/04 08:12:22;;;;;;;17.08;3.33;;;10.10;99.90;;;;;;5063961;28;20033;-50
2024/02/04 08:14:48;;;;;;;15.10;3.45;;;10.10;99.90;;;;;;5065159;28;20283;-50
2024/02/04 08:17:14;;;;;;;9.07;3.22;;;10.10;99.90;;;;;;5064856;28;20088;-50
2024/02/04 08:19:39;;;;;;;10.38;2.45;;;10.20;99.90;;;;;;5064198;28;20032;-48
2024/02/04 08:22:05;;;;;;;10.43;2.70;;;10.20;99.90;;;;;;5064898;28;20088;-47
2024/02/04 08:24:32;;;;;;;10.82;2.95;;;10.30;99.90;;;;;;5065039;28;20040;-48
2024/02/04 08:26:58;;;;;;;11.63;2.53;;;10.30;99.90;;;;;;5063925;28;20104;-50
2024/02/04 08:29:24;;;;;;;16.45;3.53;;;10.30;99.90;;;;;;5065313;28;20028;-49
2024/02/04 08:31:51;;;;;;;12.57;2.65;;;10.30;99.90;;;;;;5064795;28;20060;-50
2024/02/04 08:34:19;;;;;;;10.35;2.88;;;10.30;99.90;;;;;;5063946;28;20178;-50
2024/02/04 08:36:45;;;;;;;14.70;4.18;;;10.30;99.90;;;;;;5065296;28;20354;-49
2024/02/04 08:39:11;;;;;;;14.57;2.75;;;10.20;99.90;;;;;;5068968;28;20032;-50
2024/02/04 08:41:36;;;;;;;19.27;3.92;;;10.20;99.90;;;;;;5068563;28;20020;-50
2024/02/04 08:44:02;;;;;;;14.82;3.90;;;10.20;99.90;;;;;;5068289;28;20143;-51
2024/02/04 08:46:28;;;;;;;14.15;3.03;;;10.30;99.90;;;;;;5068919;28;20274;-50
2024/02/04 08:48:53;;;;;;;14.77;4.10;;;10.30;99.90;;;;;;5068466;28;20287;-50
2024/02/04 08:51:19;;;;;;;13.40;3.30;;;10.30;99.90;;;;;;5067033;28;20025;-50
2024/02/04 08:53:45;;;;;;;13.30;2.33;;;10.30;99.90;;;;;;5068109;28;20321;-50
2024/02/04 08:56:11;;;;;;;11.88;2.72;;;10.40;99.90;;;;;;5068293;28;20025;-49
2024/02/04 08:58:37;;;;;;;10.65;1.98;;;10.40;99.90;;;;;;5067261;28;20295;-50
2024/02/04 09:01:05;;;;;;;18.08;2.78;;;10.50;99.90;;;;;;5068207;28;20017;-47
2024/02/04 09:03:31;;;;;;;15.45;3.28;;;10.60;99.90;;;;;;5067089;28;20051;-47
2024/02/04 09:05:57;;;;;;;10.15;2.03;;;10.60;99.90;;;;;;5067994;28;20278;-47
2024/02/04 09:08:23;;;;;;;13.00;3.30;;;10.70;99.90;;;;;;5068234;28;20032;-50
2024/02/04 09:10:48;;;;;;;14.50;4.10;;;10.70;99.90;;;;;;5068228;28;20029;-48
2024/02/04 09:13:14;;;;;;;13.18;4.10;;;10.70;99.90;;;;;;5067033;28;20295;-47
2024/02/04 09:15:40;;;;;;;14.65;3.60;;;10.70;99.90;;;;;;5066893;28;20078;-50
2024/02/04 09:18:05;;;;;;;13.15;3.63;;;10.70;99.90;;;;;;5067668;28;20045;-50
2024/02/04 09:20:31;;;;;;;16.50;4.32;;;10.70;99.90;;;;;;5067044;28;20078;-47
2024/02/04 09:22:57;;;;;;;14.40;3.47;;;10.70;99.90;;;;;;5068641;28;20255;-50
2024/02/04 09:25:24;;;;;;;20.67;4.88;;;10.70;99.90;;;;;;5067423;28;20032;-48
2024/02/04 09:27:49;;;;;;;16.35;5.03;;;10.80;99.90;;;;;;5067919;28;20328;-51
2024/02/04 09:30:15;;;;;;;15.52;3.95;;;10.80;99.90;;;;;;5066661;28;20036;-48
2024/02/04 09:32:41;;;;;;;18.25;3.80;;;10.90;99.90;;;;;;5067219;28;20043;-51
2024/02/04 09:35:09;;;;;;;15.95;3.67;;;11.00;99.90;;;;;;5067761;28;20017;-49
2024/02/04 09:37:35;;;;;;;17.90;4.10;;;11.00;99.90;;;;;;5067601;28;20197;-47
2024/02/04 09:40:00;;;;;;;16.38;3.08;;;11.10;99.90;;;;;;5067595;28;20040;-49
2024/02/04 09:42:28;;;;;;;17.80;3.40;;;11.20;99.90;;;;;;5067586;28;20025;-49
2024/02/04 09:44:53;;;;;;;13.90;4.20;;;11.30;99.90;;;;;;5066563;28;20279;-47
2024/02/04 09:47:20;;;;;;;15.68;4.00;;;11.40;99.90;;;;;;5049790;28;20036;-47
2024/02/04 09:49:46;;;;;;;17.30;4.50;;;11.60;99.90;;;;;;5065573;28;20025;-50
2024/02/04 09:52:12;;;;;;;14.23;3.30;;;11.90;99.90;;;;;;5066341;28;20025;-51
2024/02/04 09:54:45;;;;;;;19.40;3.80;;;11.90;99.90;;;;;;5049913;28;20041;-49
2024/02/04 09:57:11;;;;;;;14.43;3.40;;;11.70;99.90;;;;;;5066767;28;20023;-50
2024/02/04 09:59:37;;;;;;;13.00;3.30;;;11.70;99.90;;;;;;5067402;28;20263;-50
2024/02/04 10:02:06;;;;;;;11.50;3.15;;;11.80;99.90;;;;;;5065999;28;20033;-50
2024/02/04 10:04:31;;;;;;;12.25;2.85;;;11.80;99.90;;;;;;5065977;28;20021;-50
2024/02/04 10:06:57;;;;;;;13.52;2.72;;;12.20;99.90;;;;;;5067063;28;20088;-50
2024/02/04 10:09:23;;;;;;;11.70;3.17;;;12.60;99.90;;;;;;5066810;28;20044;-51
2024/02/04 10:11:48;;;;;;;8.57;3.60;;;12.30;99.90;;;;;;5065649;28;20033;-50
2024/02/04 10:14:15;;;;;;;13.55;3.28;;;12.30;99.90;;;;;;5067168;28;20033;-49
2024/02/04 10:16:41;;;;;;;11.43;3.13;;;12.40;99.90;;;;;;5065597;28;20356;-49
2024/02/04 10:19:07;;;;;;;8.80;2.45;;;12.20;99.90;;;;;;5065778;28;20037;-50
2024/02/04 10:21:33;;;;;;;12.75;3.00;;;12.00;99.90;;;;;;5066744;28;20143;-51
2024/02/04 10:23:58;;;;;;;12.70;2.95;;;11.90;99.90;;;;;;5065691;28;20283;-47
2024/02/04 10:26:30;;;;;;;9.15;2.70;;;11.80;99.90;;;;;;5066627;28;20116;-51
2024/02/04 10:28:57;;;;;;;12.07;2.55;;;11.80;99.90;;;;;;5065903;28;20071;-49
2024/02/04 10:31:22;;;;;;;6.68;1.95;;;11.70;99.90;;;;;;5065336;28;20029;-49
2024/02/04 10:33:49;;;;;;;14.65;2.95;;;11.70;99.90;;;;;;5066376;28;20032;-50
2024/02/04 10:36:15;;;;;;;14.00;3.80;;;11.80;99.90;;;;;;5065625;28;20041;-47
2024/02/04 10:38:41;;;;;;;14.90;3.35;;;11.80;99.90;;;;;;5066487;28;20029;-51
2024/02/04 10:41:06;;;;;;;17.00;4.10;;;11.80;99.90;;;;;;5066529;28;20163;-50
2024/02/04 10:43:36;;;;;;;15.98;3.50;;;11.80;99.90;;;;;;5065503;28;20029;-50
2024/02/04 10:46:08;;;;;;;;;;;11.80;99.90;;;;;;5066574;28;20041;-49
2024/02/04 10:48:41;;;;;;;13.73;2.83;;;11.80;99.90;;;;;;5065236;28;19909;-50
2024/02/04 10:51:16;;;;;;;13.45;4.43;;;11.80;99.90;;;;;;5065660;28;20096;-48
2024/02/04 10:53:43;;;;;;;10.43;2.75;;;11.80;99.90;;;;;;5065670;28;20041;-51
2024/02/04 10:56:30;;;;;;;16.38;4.70;;;11.80;99.90;;;;;;5064764;28;20104;-50
2024/02/04 10:58:58;;;;;;;21.17;4.03;;;11.80;99.90;;;;;;5065384;28;20025;-50
2024/02/04 11:01:23;;;;;;;18.10;3.90;;;11.90;99.90;;;;;;5064986;28;20265;-48
2024/02/04 11:03:49;;;;;;;11.88;2.80;;;12.00;99.90;;;;;;5048331;28;20029;-50
2024/02/04 11:06:15;;;;;;;15.35;3.78;;;12.10;99.90;;;;;;5064813;28;20028;-50
2024/02/04 11:08:41;;;;;;;18.77;4.25;;;12.10;99.90;;;;;;5064592;28;20037;-51
2024/02/04 11:11:06;;;;;;;14.48;3.80;;;12.10;99.90;;;;;;5064851;28;20278;-50
2024/02/04 11:13:32;;;;;;;14.95;3.30;;;12.00;99.90;;;;;;5065577;28;20033;-50
2024/02/04 11:15:58;;;;;;;10.95;3.08;;;12.00;99.90;;;;;;5048189;28;20071;-50
2024/02/04 11:18:44;;;;;;;12.30;2.97;;;11.90;99.90;;;;;;5064532;28;20053;-49
2024/02/04 11:21:19;;;;;;;12.77;3.40;;;11.90;99.90;;;;;;5064678;28;20049;-50
2024/02/04 11:23:50;;;;;;;13.98;3.03;;;11.90;99.90;;;;;;5047798;28;20029;-51
2024/02/04 11:26:16;;;;;;;11.45;2.40;;;11.90;99.90;;;;;;5065545;28;20036;-49
2024/02/04 11:28:42;;;;;;;18.13;6.15;;;12.00;99.90;;;;;;5066029;28;20086;-50
2024/02/04 11:31:34;;;;;;;23.05;5.78;;;12.10;99.90;;;;;;5065812;28;20062;-50
2024/02/04 11:34:00;;;;;;;18.02;5.20;;;12.20;99.90;;;;;;5064987;28;20298;-50
2024/02/04 11:36:25;;;;;;;30.45;10.82;;;12.10;99.90;;;;;;5064471;28;20029;-47
2024/02/04 11:38:51;;;;;;;11.43;4.38;;;12.10;99.90;;;;;;5047668;28;20025;-48
2024/02/04 11:41:27;;;;;;;15.35;3.33;;;12.20;99.90;;;;;;5065443;28;20029;-48
2024/02/04 11:43:56;;;;;;;16.20;4.68;;;12.30;99.90;;;;;;5065446;28;20067;-47
2024/02/04 11:46:22;;;;;;;15.43;5.43;;;12.30;99.90;;;;;;5064352;28;20164;-52
2024/02/04 11:48:53;;;;;;;21.10;10.35;;;12.30;99.90;;;;;;5065616;28;20044;-50
2024/02/04 11:51:23;;;;;;;17.10;6.07;;;12.40;99.90;;;;;;5064918;28;20198;-54
2024/02/04 11:53:49;;;;;;;23.73;9.00;;;12.70;99.90;;;;;;5065512;28;20104;-50
2024/02/04 11:56:14;;;;;;;15.70;3.40;;;13.00;99.90;;;;;;5047646;28;20412;-50
2024/02/04 11:58:40;;;;;;;13.50;3.35;;;13.30;99.90;;;;;;5065304;28;20040;-50
2024/02/04 12:01:10;;;;;;;13.75;3.20;;;13.40;99.90;;;;;;5064924;28;20033;-50
2024/02/04 12:03:35;;;;;;;21.40;4.27;;;13.60;99.90;;;;;;5064284;28;20024;-50
2024/02/04 12:06:03;;;;;;;17.90;4.82;;;13.70;99.90;;;;;;5047769;28;20461;-51
2024/02/04 12:08:32;;;;;;;12.10;2.60;;;14.00;99.90;;;;;;5064143;28;20029;-50
2024/02/04 12:10:58;;;;;;;12.35;3.08;;;14.40;99.90;;;;;;5065283;28;20045;-51
2024/02/04 12:13:24;;;;;;;10.85;2.20;;;14.40;99.90;;;;;;5034745;28;20195;-48
2024/02/04 12:15:50;;;;;;;7.90;2.20;;;13.80;99.90;;;;;;5068759;28;20140;-48
2024/02/04 12:18:19;;;;;;;15.27;2.83;;;13.20;99.90;;;;;;5068030;28;20041;-49
2024/02/04 12:20:45;;;;;;;13.32;2.50;;;12.90;99.90;;;;;;5069250;28;20243;-50
2024/02/04 12:23:12;;;;;;;11.98;2.50;;;12.70;99.90;;;;;;5067950;28;20032;-50
2024/02/04 12:25:37;;;;;;;12.88;2.97;;;12.60;99.90;;;;;;5068739;28;20021;-49
2024/02/04 12:28:03;;;;;;;8.90;2.33;;;12.50;99.90;;;;;;5068877;28;20329;-48
2024/02/04 12:30:30;;;;;;;18.65;3.05;;;12.50;99.90;;;;;;5051011;28;20100;-49
2024/02/04 12:32:59;;;;;;;11.35;3.03;;;12.40;99.90;;;;;;5068482;28;20032;-50
2024/02/04 12:35:26;;;;;;;9.10;2.33;;;12.40;99.90;;;;;;5068495;28;20033;-50